Akiak, Alaska
Current Conditions -  °F | °C
As of 3:56 AM on Tuesday 21 Oct 2014 (Local Time) from PFKW Reporting Station
Light Snow Light Snow  
Wind Chill: 21°   Ceiling: 900
Heat Index: 26°   Visibility: 9mi
Dew Point: 26°   Wind: 5mph
Humidity: 100%   Direction: 60°ENE
Pressure: 29.24"   Gusts: NA
Location:  60.92°N, 161.23°W
Report Text: PFKW 211156Z AUTO 06004KT 9SM -SN OVC009 M03/M03 A2924 RMK AO2 SLP902 P0000 60000 T10331033 11022 21033 53006 FZRANO
Loading
Personal Weather Stations






























Interactive Weather Map New forecast layout! Learn more

10-Day Weather Forecast

Advertisements
Track Severe Weather on mobile